TNCE/EUX METAR and TAF weather

Enter ICAO airport designator
Station Type Date Time Source
TNCE METAR 2019/09/21 21:55 UTC NOAA

TNCE 212155Z AUTO 10007KT 070V150 //// // ///////// 29/25 Q1013 RE//


Station Type Date Time Source
TNCE Decoded METAR 2019/09/21 21:55 UTC NOAA

Roosevelt Airport Saint Eustatius, Netherlands Antilles (TNCE) 17-29N 062-59W 39M
Sep 21, 2019 - 05:55 PM EDT / 2019.09.21 2155 UTC
Wind: from the E (100 degrees) at 8 MPH (7 KT) (direction variable):0
Temperature: 84 F (29 C)
Dew Point: 77 F (25 C)
Relative Humidity: 79%
Pressure (altimeter): 29.91 in. Hg (1013 hPa)
ob: TNCE 212155Z AUTO 10007KT 070V150 //// // ///////// 29/25 Q1013 RE//
cycle: 22

Station Type Date Time Source
TNCE TAF UTC NOAA

Error!

Example: see airport list